Dong Fang Chun — BRZL — position and weather

sailwx.info

Track history (hours):
 
Tides and Currents Weather Stations Pressure Air Temp Water Temp Dewpoint Dewpoint Depression Visibility Wind Speed Wind Dir Waves Ship Positions

Dong Fang Chun

Last reported at 2014-Nov-01 10:32 UTC. Time now 2014-Nov-01 11:16 UTC.
Position N 22°29' E 113°55'.

Length 23 m; draft 1.4 m.

Type: High speed craft. MMSI: 412461320.

Date/timePositionNaut miles runAvg speedWind from/ knotsBaromVisibWave heightAir tempDewpointWater temp
2014-Nov-01 10:32N 22°29' E 113°55'0 0.1
2014-Nov-01 09:33N 22°29' E 113°55'0 0.0
2014-Nov-01 08:33N 22°29' E 113°55'0 0.0
2014-Nov-01 07:33N 22°29' E 113°55'0 0.0
2014-Nov-01 06:33N 22°29' E 113°55'0 0.0
2014-Nov-01 05:33N 22°29' E 113°55'0 0.0
2014-Nov-01 04:32N 22°29' E 113°55'0 0.0
2014-Nov-01 03:34N 22°29' E 113°55'0 0.0
2014-Nov-01 02:32N 22°29' E 113°55'0 0.0
2014-Nov-01 01:32N 22°29' E 113°55'0 0.0
2014-Nov-01 00:33N 22°29' E 113°55'0 0.0
2014-Oct-31 23:33N 22°29' E 113°55'0 0.0
2014-Oct-31 22:34N 22°29' E 113°55'0 0.0
2014-Oct-31 21:33N 22°29' E 113°55'0 0.0
2014-Oct-31 20:33N 22°29' E 113°55'0 0.0
2014-Oct-31 19:33N 22°29' E 113°55'0 0.0
2014-Oct-31 18:32N 22°29' E 113°55'0 0.0
2014-Oct-31 17:33N 22°29' E 113°55'0 0.0
2014-Oct-31 16:33N 22°29' E 113°55'0 0.0
2014-Oct-31 15:33N 22°29' E 113°55'0 0.0
2014-Oct-31 14:33N 22°29' E 113°55'0 0.0
2014-Oct-31 13:32N 22°29' E 113°55'0 0.0
2014-Oct-31 12:32N 22°29' E 113°55'0 0.0
2014-Oct-31 10:33N 22°29' E 113°55'7 4.5
2014-Oct-31 09:04N 22°22' E 113°55'713.1
2014-Oct-31 08:33N 22°29' E 113°55'0 0.1
2014-Oct-31 07:33N 22°29' E 113°55'0 0.0
2014-Oct-31 06:33N 22°29' E 113°55'0 0.0
2014-Oct-31 05:33N 22°29' E 113°55'0 0.0
2014-Oct-31 04:33N 22°29' E 113°55'5 5.1
2014-Oct-31 03:33N 22°24' E 113°54'2 2.0
2014-Oct-31 02:29N 22°22' E 113°55'7 7.5
2014-Oct-31 01:34N 22°29' E 113°55'0 0.1
2014-Oct-30 23:33N 22°29' E 113°55'0 0.0
2014-Oct-30 22:33N 22°29' E 113°55'0 0.0
2014-Oct-30 21:33N 22°29' E 113°55'0 0.0
2014-Oct-30 20:33N 22°29' E 113°55'0 0.0
2014-Oct-30 19:33N 22°29' E 113°55'0 0.0
2014-Oct-30 18:32N 22°29' E 113°55'0 0.0
2014-Oct-30 17:33N 22°29' E 113°55'0 0.0
2014-Oct-30 16:33N 22°29' E 113°55'0 0.0
2014-Oct-30 15:33N 22°29' E 113°55'0 0.0
2014-Oct-30 14:33N 22°29' E 113°55'5 2.7
2014-Oct-30 12:33N 22°23' E 113°54'5 2.7
2014-Oct-30 10:33N 22°29' E 113°55'0 0.0
2014-Oct-30 08:33N 22°29' E 113°55'0 0.1
2014-Oct-30 07:33N 22°29' E 113°55'2 2.4
2014-Oct-30 06:33N 22°26' E 113°54'2120.9
2014-Oct-30 05:33N 22°14' E 113°35'1312.5
2014-Oct-30 04:33N 22°21' E 113°47'8 8.3
2014-Oct-30 03:33N 22°26' E 113°54'2120.7
2014-Oct-30 02:33N 22°14' E 113°35'1616.1
2014-Oct-30 01:32N 22°23' E 113°50'7 6.9
2014-Oct-30 00:33N 22°29' E 113°55'0 0.0
2014-Oct-29 23:33N 22°29' E 113°55'0 0.0
2014-Oct-29 22:33N 22°29' E 113°55'0 0.0
2014-Oct-29 21:33N 22°29' E 113°55'0 0.0
2014-Oct-29 20:33N 22°29' E 113°55'0 0.0
2014-Oct-29 19:33N 22°29' E 113°55'0 0.0
2014-Oct-29 18:33N 22°29' E 113°55'0 0.0
2014-Oct-29 17:33N 22°29' E 113°55'0 0.0
2014-Oct-29 16:33N 22°29' E 113°55'0 0.0
2014-Oct-29 15:33N 22°29' E 113°55'0 0.0
2014-Oct-29 14:32N 22°29' E 113°55'0 0.0
2014-Oct-29 13:33N 22°29' E 113°55'0 0.0
2014-Oct-29 12:33N 22°29' E 113°55'0 0.0
2014-Oct-29 11:34N 22°29' E 113°55'1513.7
2014-Oct-29 10:30N 22°19' E 113°43'6 6.4
2014-Oct-29 09:33N 22°16' E 113°37'2020.5
2014-Oct-29 08:33N 22°29' E 113°55'1413.2
2014-Oct-29 07:32N 22°19' E 113°44'7 6.8
2014-Oct-29 06:33N 22°16' E 113°38'2020.1
2014-Oct-29 05:33N 22°29' E 113°55'1919.5
2014-Oct-29 04:34N 22°16' E 113°39'10 9.6
2014-Oct-29 03:33N 22°22' E 113°47'7 7.3
2014-Oct-29 02:33N 22°26' E 113°53'2120.3
2014-Oct-29 01:33N 22°14' E 113°35'1212.6
2014-Oct-29 00:33N 22°21' E 113°47'1110.7
2014-Oct-28 23:33N 22°29' E 113°55'0 0.0
2014-Oct-28 22:33N 22°29' E 113°55'0 0.0
2014-Oct-28 21:33N 22°29' E 113°55'0 0.0
2014-Oct-28 20:33N 22°29' E 113°55'0 0.0
2014-Oct-28 19:33N 22°29' E 113°55'0 0.0
2014-Oct-28 18:33N 22°29' E 113°55'0 0.0
2014-Oct-28 17:33N 22°29' E 113°55'0 0.0
2014-Oct-28 16:33N 22°29' E 113°55'0 0.0
2014-Oct-28 15:33N 22°29' E 113°55'0 0.0
2014-Oct-28 14:33N 22°29' E 113°55'3 1.4
2014-Oct-28 12:32N 22°26' E 113°54'3 1.4
2014-Oct-28 10:31N 22°29' E 113°55'6 3.9
2014-Oct-28 09:03N 22°23' E 113°54'611.4
2014-Oct-28 08:33N 22°29' E 113°55'0 0.0
2014-Oct-28 06:33N 22°29' E 113°55'0 0.1
2014-Oct-28 05:33N 22°29' E 113°55'0 0.0
2014-Oct-28 04:34N 22°29' E 113°55'0 0.0
2014-Oct-28 03:34N 22°29' E 113°55'0 0.0
2014-Oct-28 02:33N 22°29' E 113°55'0 0.0
2014-Oct-28 01:33N 22°29' E 113°55'0 0.0
2014-Oct-28 00:32N 22°29' E 113°55'0 0.0
2014-Oct-27 23:33N 22°29' E 113°55'0 0.0
2014-Oct-27 22:33N 22°29' E 113°55'0 0.0
2014-Oct-27 21:33N 22°29' E 113°55'0 0.0
2014-Oct-27 20:33N 22°29' E 113°55'0 0.0
2014-Oct-27 19:33N 22°29' E 113°55'0 0.0
2014-Oct-27 18:32N 22°29' E 113°55'0 0.0
2014-Oct-27 17:33N 22°29' E 113°55'0 0.0
2014-Oct-27 16:33N 22°29' E 113°55'0 0.0
2014-Oct-27 15:33N 22°29' E 113°55'0 0.0
2014-Oct-27 14:34N 22°29' E 113°55'0 0.0
2014-Oct-27 13:33N 22°29' E 113°55'0 0.0
2014-Oct-27 12:34N 22°29' E 113°55'0 0.0
2014-Oct-27 11:33N 22°29' E 113°55'0 0.0
2014-Oct-27 10:33N 22°29' E 113°55'0 0.0
2014-Oct-27 09:33N 22°29' E 113°55'0 0.0
2014-Oct-27 08:33N 22°29' E 113°55'0 0.0
2014-Oct-27 07:33N 22°29' E 113°55'0 0.0
2014-Oct-27 06:33N 22°29' E 113°55'0 0.0
2014-Oct-27 05:33N 22°29' E 113°55'0 0.0
2014-Oct-27 04:33N 22°29' E 113°55'0 0.0
2014-Oct-27 03:33N 22°29' E 113°55'1312.5
2014-Oct-27 02:33N 22°20' E 113°45'8 8.3
2014-Oct-27 01:33N 22°16' E 113°37'2120.8
2014-Oct-27 00:33N 22°29' E 113°55'0 0.2
2014-Oct-26 23:33N 22°29' E 113°55'0 0.0
2014-Oct-26 22:33N 22°29' E 113°55'0 0.0
2014-Oct-26 21:33N 22°29' E 113°55'0 0.0
2014-Oct-26 20:33N 22°29' E 113°55'0 0.0
2014-Oct-26 19:33N 22°29' E 113°55'0 0.0
2014-Oct-26 18:33N 22°29' E 113°55'0 0.0
2014-Oct-26 17:33N 22°29' E 113°55'0 0.0
2014-Oct-26 16:33N 22°29' E 113°55'0 0.0
2014-Oct-26 15:33N 22°29' E 113°55'0 0.0
2014-Oct-26 14:33N 22°29' E 113°55'0 0.0
2014-Oct-26 13:33N 22°29' E 113°55'0 0.0
2014-Oct-26 12:33N 22°29' E 113°55'0 0.0
2014-Oct-26 10:33N 22°29' E 113°55'0 0.1
2014-Oct-26 08:33N 22°29' E 113°55'1514.0
2014-Oct-26 07:29N 22°19' E 113°42'4 4.5
2014-Oct-26 06:33N 22°16' E 113°39'1919.2
2014-Oct-26 05:33N 22°29' E 113°55'2019.8
2014-Oct-26 04:33N 22°16' E 113°38'10 9.8
2014-Oct-26 03:33N 22°21' E 113°47'9 9.1
2014-Oct-26 02:33N 22°27' E 113°54'2216.0
2014-Oct-26 01:12N 22°14' E 113°35'1320.3
2014-Oct-26 00:33N 22°21' E 113°47'1010.0
2014-Oct-25 23:33N 22°29' E 113°55'0 0.0
2014-Oct-25 22:33N 22°29' E 113°55'0 0.0
2014-Oct-25 21:33N 22°29' E 113°55'0 0.0
2014-Oct-25 20:33N 22°29' E 113°55'0 0.0
2014-Oct-25 19:33N 22°29' E 113°55'0 0.0
2014-Oct-25 18:33N 22°29' E 113°55'0 0.0
2014-Oct-25 17:33N 22°29' E 113°55'0 0.0
2014-Oct-25 16:33N 22°29' E 113°55'0 0.0
2014-Oct-25 15:33N 22°29' E 113°55'0 0.0
2014-Oct-25 14:33N 22°29' E 113°55'4 2.2
2014-Oct-25 12:32N 22°24' E 113°54'4 2.2
2014-Oct-25 10:33N 22°29' E 113°55'0 0.0
2014-Oct-25 08:34N 22°29' E 113°55'0 0.1
2014-Oct-25 07:33N 22°29' E 113°55'0 0.0
2014-Oct-25 06:33N 22°29' E 113°55'1514.4
2014-Oct-25 05:30N 22°19' E 113°42'6 6.4
2014-Oct-25 04:34N 22°15' E 113°37'2121.1
2014-Oct-25 03:33N 22°29' E 113°55'1513.5
2014-Oct-25 02:28N 22°19' E 113°43'5 5.5
2014-Oct-25 01:31N 22°16' E 113°38'2020.4
2014-Oct-25 00:33N 22°29' E 113°55'0 0.1
2014-Oct-24 23:33N 22°29' E 113°55'0 0.0
2014-Oct-24 22:33N 22°29' E 113°55'0 0.0
2014-Oct-24 21:33N 22°29' E 113°55'0 0.0
2014-Oct-24 20:33N 22°29' E 113°55'0 0.0
2014-Oct-24 19:32N 22°29' E 113°55'0 0.0
2014-Oct-24 18:33N 22°29' E 113°55'0 0.0
2014-Oct-24 17:33N 22°29' E 113°55'0 0.0
2014-Oct-24 16:33N 22°29' E 113°55'0 0.0
2014-Oct-24 15:33N 22°29' E 113°55'0 0.0
2014-Oct-24 14:33N 22°29' E 113°55'2 1.2
2014-Oct-24 12:33N 22°26' E 113°54'2 1.2
2014-Oct-24 10:34N 22°29' E 113°55'0 0.0
2014-Oct-24 08:33N 22°29' E 113°55'3 3.4
2014-Oct-24 07:33N 22°26' E 113°53'2020.1
2014-Oct-24 06:33N 22°14' E 113°35'1212.3
2014-Oct-24 05:33N 22°21' E 113°47'9 8.8
2014-Oct-24 04:33N 22°27' E 113°54'2120.7
2014-Oct-24 03:33N 22°14' E 113°35'1212.5
2014-Oct-24 02:33N 22°21' E 113°47'1110.7
2014-Oct-24 01:33N 22°29' E 113°55'5 3.1
2014-Oct-24 00:05N 22°24' E 113°54'5 8.8
2014-Oct-23 23:33N 22°29' E 113°55'0 0.0
2014-Oct-23 22:33N 22°29' E 113°55'0 0.0
2014-Oct-23 21:33N 22°29' E 113°55'0 0.0
2014-Oct-23 20:33N 22°29' E 113°55'0 0.0
2014-Oct-23 19:33N 22°29' E 113°55'0 0.0
2014-Oct-23 18:33N 22°29' E 113°55'0 0.0
2014-Oct-23 17:33N 22°29' E 113°55'0 0.0
2014-Oct-23 16:34N 22°29' E 113°55'0 0.0
2014-Oct-23 15:33N 22°29' E 113°55'0 0.0
2014-Oct-23 14:33N 22°29' E 113°55'4 1.9
2014-Oct-23 12:32N 22°25' E 113°54'4 2.0
2014-Oct-23 10:34N 22°29' E 113°55'0 0.0
2014-Oct-23 08:33N 22°29' E 113°55'0 0.1
2014-Oct-23 07:33N 22°29' E 113°55'4 4.4
2014-Oct-23 06:34N 22°25' E 113°52'1918.8
2014-Oct-23 05:33N 22°14' E 113°35'1212.4
2014-Oct-23 04:34N 22°21' E 113°46'9 8.6
2014-Oct-23 03:33N 22°26' E 113°54'2120.8
2014-Oct-23 02:33N 22°14' E 113°35'1312.9
2014-Oct-23 01:33N 22°21' E 113°47'1010.3
2014-Oct-23 00:33N 22°29' E 113°55'0 0.0
2014-Oct-22 23:33N 22°29' E 113°55'0 0.0
2014-Oct-22 22:33N 22°29' E 113°55'0 0.0
2014-Oct-22 21:33N 22°29' E 113°55'0 0.0
2014-Oct-22 20:33N 22°29' E 113°55'0 0.0
2014-Oct-22 12:19N 22°29' E 113°55'2 2.8
2014-Oct-22 11:33N 22°27' E 113°54'2120.9
2014-Oct-22 10:33N 22°14' E 113°35'  
Track history (hours):
 
Tides and Currents Weather Stations Pressure Air Temp Water Temp Dewpoint Dewpoint Depression Visibility Wind Speed Wind Dir Waves Ship Positions

Dong Fang Chun

Last reported at 2014-Nov-01 10:32 UTC. Time now 2014-Nov-01 11:16 UTC.
Position N 22°29' E 113°55'.

Length 23 m; draft 1.4 m.

Type: High speed craft. MMSI: 412461320.

Date/timePositionNaut miles runAvg speedWind from/ knotsBaromVisibWave heightAir tempDewpointWater temp
2014-Nov-01 10:32N 22°29' E 113°55'0 0.1
2014-Nov-01 09:33N 22°29' E 113°55'0 0.0
2014-Nov-01 08:33N 22°29' E 113°55'0 0.0
2014-Nov-01 07:33N 22°29' E 113°55'0 0.0
2014-Nov-01 06:33N 22°29' E 113°55'0 0.0
2014-Nov-01 05:33N 22°29' E 113°55'0 0.0
2014-Nov-01 04:32N 22°29' E 113°55'0 0.0
2014-Nov-01 03:34N 22°29' E 113°55'0 0.0
2014-Nov-01 02:32N 22°29' E 113°55'0 0.0
2014-Nov-01 01:32N 22°29' E 113°55'0 0.0
2014-Nov-01 00:33N 22°29' E 113°55'0 0.0
2014-Oct-31 23:33N 22°29' E 113°55'0 0.0
2014-Oct-31 22:34N 22°29' E 113°55'0 0.0
2014-Oct-31 21:33N 22°29' E 113°55'0 0.0
2014-Oct-31 20:33N 22°29' E 113°55'0 0.0
2014-Oct-31 19:33N 22°29' E 113°55'0 0.0
2014-Oct-31 18:32N 22°29' E 113°55'0 0.0
2014-Oct-31 17:33N 22°29' E 113°55'0 0.0
2014-Oct-31 16:33N 22°29' E 113°55'0 0.0
2014-Oct-31 15:33N 22°29' E 113°55'0 0.0
2014-Oct-31 14:33N 22°29' E 113°55'0 0.0
2014-Oct-31 13:32N 22°29' E 113°55'0 0.0
2014-Oct-31 12:32N 22°29' E 113°55'0 0.0
2014-Oct-31 10:33N 22°29' E 113°55'7 4.5
2014-Oct-31 09:04N 22°22' E 113°55'713.1
2014-Oct-31 08:33N 22°29' E 113°55'0 0.1
2014-Oct-31 07:33N 22°29' E 113°55'0 0.0
2014-Oct-31 06:33N 22°29' E 113°55'0 0.0
2014-Oct-31 05:33N 22°29' E 113°55'0 0.0
2014-Oct-31 04:33N 22°29' E 113°55'5 5.1
2014-Oct-31 03:33N 22°24' E 113°54'2 2.0
2014-Oct-31 02:29N 22°22' E 113°55'7 7.5
2014-Oct-31 01:34N 22°29' E 113°55'0 0.1
2014-Oct-30 23:33N 22°29' E 113°55'0 0.0
2014-Oct-30 22:33N 22°29' E 113°55'0 0.0
2014-Oct-30 21:33N 22°29' E 113°55'0 0.0
2014-Oct-30 20:33N 22°29' E 113°55'0 0.0
2014-Oct-30 19:33N 22°29' E 113°55'0 0.0
2014-Oct-30 18:32N 22°29' E 113°55'0 0.0
2014-Oct-30 17:33N 22°29' E 113°55'0 0.0
2014-Oct-30 16:33N 22°29' E 113°55'0 0.0
2014-Oct-30 15:33N 22°29' E 113°55'0 0.0
2014-Oct-30 14:33N 22°29' E 113°55'5 2.7
2014-Oct-30 12:33N 22°23' E 113°54'5 2.7
2014-Oct-30 10:33N 22°29' E 113°55'0 0.0
2014-Oct-30 08:33N 22°29' E 113°55'0 0.1
2014-Oct-30 07:33N 22°29' E 113°55'2 2.4
2014-Oct-30 06:33N 22°26' E 113°54'2120.9
2014-Oct-30 05:33N 22°14' E 113°35'1312.5
2014-Oct-30 04:33N 22°21' E 113°47'8 8.3
2014-Oct-30 03:33N 22°26' E 113°54'2120.7
2014-Oct-30 02:33N 22°14' E 113°35'1616.1
2014-Oct-30 01:32N 22°23' E 113°50'7 6.9
2014-Oct-30 00:33N 22°29' E 113°55'0 0.0
2014-Oct-29 23:33N 22°29' E 113°55'0 0.0
2014-Oct-29 22:33N 22°29' E 113°55'0 0.0
2014-Oct-29 21:33N 22°29' E 113°55'0 0.0
2014-Oct-29 20:33N 22°29' E 113°55'0 0.0
2014-Oct-29 19:33N 22°29' E 113°55'0 0.0
2014-Oct-29 18:33N 22°29' E 113°55'0 0.0
2014-Oct-29 17:33N 22°29' E 113°55'0 0.0
2014-Oct-29 16:33N 22°29' E 113°55'0 0.0
2014-Oct-29 15:33N 22°29' E 113°55'0 0.0
2014-Oct-29 14:32N 22°29' E 113°55'0 0.0
2014-Oct-29 13:33N 22°29' E 113°55'0 0.0
2014-Oct-29 12:33N 22°29' E 113°55'0 0.0
2014-Oct-29 11:34N 22°29' E 113°55'1513.7
2014-Oct-29 10:30N 22°19' E 113°43'6 6.4
2014-Oct-29 09:33N 22°16' E 113°37'2020.5
2014-Oct-29 08:33N 22°29' E 113°55'1413.2
2014-Oct-29 07:32N 22°19' E 113°44'7 6.8
2014-Oct-29 06:33N 22°16' E 113°38'2020.1
2014-Oct-29 05:33N 22°29' E 113°55'1919.5
2014-Oct-29 04:34N 22°16' E 113°39'10 9.6
2014-Oct-29 03:33N 22°22' E 113°47'7 7.3
2014-Oct-29 02:33N 22°26' E 113°53'2120.3
2014-Oct-29 01:33N 22°14' E 113°35'1212.6
2014-Oct-29 00:33N 22°21' E 113°47'1110.7
2014-Oct-28 23:33N 22°29' E 113°55'0 0.0
2014-Oct-28 22:33N 22°29' E 113°55'0 0.0
2014-Oct-28 21:33N 22°29' E 113°55'0 0.0
2014-Oct-28 20:33N 22°29' E 113°55'0 0.0
2014-Oct-28 19:33N 22°29' E 113°55'0 0.0
2014-Oct-28 18:33N 22°29' E 113°55'0 0.0
2014-Oct-28 17:33N 22°29' E 113°55'0 0.0
2014-Oct-28 16:33N 22°29' E 113°55'0 0.0
2014-Oct-28 15:33N 22°29' E 113°55'0 0.0
2014-Oct-28 14:33N 22°29' E 113°55'3 1.4
2014-Oct-28 12:32N 22°26' E 113°54'3 1.4
2014-Oct-28 10:31N 22°29' E 113°55'6 3.9
2014-Oct-28 09:03N 22°23' E 113°54'611.4
2014-Oct-28 08:33N 22°29' E 113°55'0 0.0
2014-Oct-28 06:33N 22°29' E 113°55'0 0.1
2014-Oct-28 05:33N 22°29' E 113°55'0 0.0
2014-Oct-28 04:34N 22°29' E 113°55'0 0.0
2014-Oct-28 03:34N 22°29' E 113°55'0 0.0
2014-Oct-28 02:33N 22°29' E 113°55'0 0.0
2014-Oct-28 01:33N 22°29' E 113°55'0 0.0
2014-Oct-28 00:32N 22°29' E 113°55'0 0.0
2014-Oct-27 23:33N 22°29' E 113°55'0 0.0
2014-Oct-27 22:33N 22°29' E 113°55'0 0.0
2014-Oct-27 21:33N 22°29' E 113°55'0 0.0
2014-Oct-27 20:33N 22°29' E 113°55'0 0.0
2014-Oct-27 19:33N 22°29' E 113°55'0 0.0
2014-Oct-27 18:32N 22°29' E 113°55'0 0.0
2014-Oct-27 17:33N 22°29' E 113°55'0 0.0
2014-Oct-27 16:33N 22°29' E 113°55'0 0.0
2014-Oct-27 15:33N 22°29' E 113°55'0 0.0
2014-Oct-27 14:34N 22°29' E 113°55'0 0.0
2014-Oct-27 13:33N 22°29' E 113°55'0 0.0
2014-Oct-27 12:34N 22°29' E 113°55'0 0.0
2014-Oct-27 11:33N 22°29' E 113°55'0 0.0
2014-Oct-27 10:33N 22°29' E 113°55'0 0.0
2014-Oct-27 09:33N 22°29' E 113°55'0 0.0
2014-Oct-27 08:33N 22°29' E 113°55'0 0.0
2014-Oct-27 07:33N 22°29' E 113°55'0 0.0
2014-Oct-27 06:33N 22°29' E 113°55'0 0.0
2014-Oct-27 05:33N 22°29' E 113°55'0 0.0
2014-Oct-27 04:33N 22°29' E 113°55'0 0.0
2014-Oct-27 03:33N 22°29' E 113°55'1312.5
2014-Oct-27 02:33N 22°20' E 113°45'8 8.3
2014-Oct-27 01:33N 22°16' E 113°37'2120.8
2014-Oct-27 00:33N 22°29' E 113°55'0 0.2
2014-Oct-26 23:33N 22°29' E 113°55'0 0.0
2014-Oct-26 22:33N 22°29' E 113°55'0 0.0
2014-Oct-26 21:33N 22°29' E 113°55'0 0.0
2014-Oct-26 20:33N 22°29' E 113°55'0 0.0
2014-Oct-26 19:33N 22°29' E 113°55'0 0.0
2014-Oct-26 18:33N 22°29' E 113°55'0 0.0
2014-Oct-26 17:33N 22°29' E 113°55'0 0.0
2014-Oct-26 16:33N 22°29' E 113°55'0 0.0
2014-Oct-26 15:33N 22°29' E 113°55'0 0.0
2014-Oct-26 14:33N 22°29' E 113°55'0 0.0
2014-Oct-26 13:33N 22°29' E 113°55'0 0.0
2014-Oct-26 12:33N 22°29' E 113°55'0 0.0
2014-Oct-26 10:33N 22°29' E 113°55'0 0.1
2014-Oct-26 08:33N 22°29' E 113°55'1514.0
2014-Oct-26 07:29N 22°19' E 113°42'4 4.5
2014-Oct-26 06:33N 22°16' E 113°39'1919.2
2014-Oct-26 05:33N 22°29' E 113°55'2019.8
2014-Oct-26 04:33N 22°16' E 113°38'10 9.8
2014-Oct-26 03:33N 22°21' E 113°47'9 9.1
2014-Oct-26 02:33N 22°27' E 113°54'2216.0
2014-Oct-26 01:12N 22°14' E 113°35'1320.3
2014-Oct-26 00:33N 22°21' E 113°47'1010.0
2014-Oct-25 23:33N 22°29' E 113°55'0 0.0
2014-Oct-25 22:33N 22°29' E 113°55'0 0.0
2014-Oct-25 21:33N 22°29' E 113°55'0 0.0
2014-Oct-25 20:33N 22°29' E 113°55'0 0.0
2014-Oct-25 19:33N 22°29' E 113°55'0 0.0
2014-Oct-25 18:33N 22°29' E 113°55'0 0.0
2014-Oct-25 17:33N 22°29' E 113°55'0 0.0
2014-Oct-25 16:33N 22°29' E 113°55'0 0.0
2014-Oct-25 15:33N 22°29' E 113°55'0 0.0
2014-Oct-25 14:33N 22°29' E 113°55'4 2.2
2014-Oct-25 12:32N 22°24' E 113°54'4 2.2
2014-Oct-25 10:33N 22°29' E 113°55'0 0.0
2014-Oct-25 08:34N 22°29' E 113°55'0 0.1
2014-Oct-25 07:33N 22°29' E 113°55'0 0.0
2014-Oct-25 06:33N 22°29' E 113°55'1514.4
2014-Oct-25 05:30N 22°19' E 113°42'6 6.4
2014-Oct-25 04:34N 22°15' E 113°37'2121.1
2014-Oct-25 03:33N 22°29' E 113°55'1513.5
2014-Oct-25 02:28N 22°19' E 113°43'5 5.5
2014-Oct-25 01:31N 22°16' E 113°38'2020.4
2014-Oct-25 00:33N 22°29' E 113°55'0 0.1
2014-Oct-24 23:33N 22°29' E 113°55'0 0.0
2014-Oct-24 22:33N 22°29' E 113°55'0 0.0
2014-Oct-24 21:33N 22°29' E 113°55'0 0.0
2014-Oct-24 20:33N 22°29' E 113°55'0 0.0
2014-Oct-24 19:32N 22°29' E 113°55'0 0.0
2014-Oct-24 18:33N 22°29' E 113°55'0 0.0
2014-Oct-24 17:33N 22°29' E 113°55'0 0.0
2014-Oct-24 16:33N 22°29' E 113°55'0 0.0
2014-Oct-24 15:33N 22°29' E 113°55'0 0.0
2014-Oct-24 14:33N 22°29' E 113°55'2 1.2
2014-Oct-24 12:33N 22°26' E 113°54'2 1.2
2014-Oct-24 10:34N 22°29' E 113°55'0 0.0
2014-Oct-24 08:33N 22°29' E 113°55'3 3.4
2014-Oct-24 07:33N 22°26' E 113°53'2020.1
2014-Oct-24 06:33N 22°14' E 113°35'1212.3
2014-Oct-24 05:33N 22°21' E 113°47'9 8.8
2014-Oct-24 04:33N 22°27' E 113°54'2120.7
2014-Oct-24 03:33N 22°14' E 113°35'1212.5
2014-Oct-24 02:33N 22°21' E 113°47'1110.7
2014-Oct-24 01:33N 22°29' E 113°55'5 3.1
2014-Oct-24 00:05N 22°24' E 113°54'5 8.8
2014-Oct-23 23:33N 22°29' E 113°55'0 0.0
2014-Oct-23 22:33N 22°29' E 113°55'0 0.0
2014-Oct-23 21:33N 22°29' E 113°55'0 0.0
2014-Oct-23 20:33N 22°29' E 113°55'0 0.0
2014-Oct-23 19:33N 22°29' E 113°55'0 0.0
2014-Oct-23 18:33N 22°29' E 113°55'0 0.0
2014-Oct-23 17:33N 22°29' E 113°55'0 0.0
2014-Oct-23 16:34N 22°29' E 113°55'0 0.0
2014-Oct-23 15:33N 22°29' E 113°55'0 0.0
2014-Oct-23 14:33N 22°29' E 113°55'4 1.9
2014-Oct-23 12:32N 22°25' E 113°54'4 2.0
2014-Oct-23 10:34N 22°29' E 113°55'0 0.0
2014-Oct-23 08:33N 22°29' E 113°55'0 0.1
2014-Oct-23 07:33N 22°29' E 113°55'4 4.4
2014-Oct-23 06:34N 22°25' E 113°52'1918.8
2014-Oct-23 05:33N 22°14' E 113°35'1212.4
2014-Oct-23 04:34N 22°21' E 113°46'9 8.6
2014-Oct-23 03:33N 22°26' E 113°54'2120.8
2014-Oct-23 02:33N 22°14' E 113°35'1312.9
2014-Oct-23 01:33N 22°21' E 113°47'1010.3
2014-Oct-23 00:33N 22°29' E 113°55'0 0.0
2014-Oct-22 23:33N 22°29' E 113°55'0 0.0
2014-Oct-22 22:33N 22°29' E 113°55'0 0.0
2014-Oct-22 21:33N 22°29' E 113°55'0 0.0
2014-Oct-22 20:33N 22°29' E 113°55'0 0.0
2014-Oct-22 12:19N 22°29' E 113°55'2 2.8
2014-Oct-22 11:33N 22°27' E 113°54'2120.9
2014-Oct-22 10:33N 22°14' E 113°35'  

Dump ship's entire track history